Latest Weather Observations for Mawson*

IDT60801

Issued at 1:01 pm EST Tuesday 17 September 2019 (issued every 10 minutes, with the page automatically refreshed every 10 minutes)

About weather observations | Map of weather stations | Latest weather observations for ANT | Other Formats
Station Details ID: 300001 Name: MAWSON Lat: -67.60 Lon: 62.88 Height: 9.9 m
Data from the previous 72 hours. | See also: Recent months at Mawson*
Date/Time
EST
Temp
°C
App
Temp
°C
Dew
Point
°C
Rel
Hum
%
Delta-T
°C
Wind Press
QNH
hPa
Press
MSL
hPa
Rain since
9am
mm
Dir  Spd
km/h
Gust
km/h
Spd
kts
Gust
kts
17/01:00pm -21.7 -27.7 -33.6 33 - SSE 11 20 6 11 975.8 975.9 -
17/12:30pm -22.5 -32.5 -32.9 38 - SE 32 54 17 29 976.0 - -
17/12:23pm -24.3 -35.6 -32.3 48 - SE 39 57 21 31 976.1 - -
17/12:07pm -22.8 -34.1 -32.4 41 - SE 39 50 21 27 976.3 - -
17/12:00pm -24.7 -36.9 -31.9 51 - ESE 44 56 24 30 975.8 - -
17/11:30am -22.9 -33.0 -33.5 37 - SE 33 54 18 29 976.4 - -
17/11:29am -22.4 -32.5 -33.3 36 - SE 33 54 18 29 976.3 - -
17/11:13am -22.3 -32.4 -33.0 37 - SSE 33 48 18 26 976.4 - -
17/11:00am -22.8 -29.1 -32.9 39 - SSE 13 28 7 15 976.5 - -
17/10:30am -22.8 -32.7 -31.2 46 - SSE 32 41 17 22 976.6 - -
17/10:00am -22.4 -30.1 -32.0 41 - SE 20 26 11 14 976.9 977.0 -
17/09:30am -21.5 -26.7 -31.4 40 - N 7 13 4 7 977.3 - -
17/09:12am -22.2 -29.8 -30.6 46 - SE 20 28 11 15 977.4 - -
17/09:05am -23.1 -34.4 -31.9 44 - SSE 39 46 21 25 977.5 - -
17/09:00am -21.1 -27.4 -31.6 38 - SE 13 22 7 12 977.7 - -
17/08:47am -21.6 -30.0 -30.3 45 - ESE 24 33 13 18 977.4 - -
17/08:30am -23.8 -37.5 -31.2 51 - SSE 52 67 28 36 977.2 - -
17/08:00am -23.2 -36.9 -30.7 50 - SSE 52 61 28 33 977.1 - -
17/07:38am -23.1 -34.7 -31.2 47 - SSE 41 61 22 33 977.5 - -
17/07:30am -22.6 -34.8 -30.8 47 - SSE 44 59 24 32 977.5 - -
17/07:00am -22.7 -35.3 -30.9 47 - SSE 46 56 25 30 977.9 978.0 -
17/06:46am -22.8 -32.0 -31.2 46 - SSE 28 48 15 26 978.1 - -
17/06:30am -21.9 -34.1 -31.0 44 - SSE 44 54 24 29 978.1 - -
17/06:00am -21.6 -32.1 -30.5 44 - S 35 52 19 28 978.5 - -
17/05:50am -19.1 -26.7 -30.4 36 - SSW 20 44 11 24 978.7 - -
17/05:30am -22.7 -36.4 -30.2 50 - SSE 52 59 28 32 978.7 - -
17/05:16am -21.7 -31.6 -30.9 43 - SSE 32 50 17 27 979.1 - -
17/05:00am -21.2 -32.1 -29.9 45 - SSE 37 52 20 28 979.1 - -
17/04:30am -22.1 -34.7 -30.1 48 - SSE 46 52 25 28 979.0 - -
17/04:00am -20.2 -29.3 -29.7 42 - SSE 28 39 15 21 978.8 979.0 -
17/03:55am -19.1 -28.2 -29.0 41 - SE 28 46 15 25 978.8 - -
17/03:51am -21.6 -31.1 -28.8 52 - SE 30 46 16 25 978.8 - -
17/03:30am -22.5 -37.1 -29.2 54 - SSE 57 70 31 38 978.8 - -
17/03:00am -22.3 -36.9 -29.0 54 - SSE 57 69 31 37 979.0 - -
17/02:30am -22.2 -38.7 -28.7 56 - SSE 67 74 36 40 978.6 - -
17/02:00am -22.0 -38.9 -28.9 54 - SSE 69 76 37 41 978.5 - -
17/01:30am -21.1 -35.7 -28.7 50 - SSE 57 65 31 35 978.7 - -
17/01:00am -21.1 -35.2 -28.9 49 - SSE 54 61 29 33 978.9 979.1 -
17/12:30am -19.8 -32.3 -28.0 48 - SSE 46 52 25 28 979.1 - -
17/12:00am -19.2 -31.4 -27.9 46 - SSE 44 52 24 28 979.1 - -
 
Date/Time
EST
Temp
°C
App
Temp
°C
Dew
Point
°C
Rel
Hum
%
Delta-T
°C
Wind Press
QNH
hPa
Press
MSL
hPa
Rain since
9am
mm
Dir  Spd
km/h
Gust
km/h
Spd
kts
Gust
kts
16/11:30pm -18.2 -30.4 -27.7 43 - SSE 44 57 24 31 979.0 - -
16/11:00pm -18.2 -29.8 -27.2 45 - SSE 41 48 22 26 979.0 - -
16/10:30pm -17.0 -28.6 -26.6 43 - SE 41 50 22 27 978.8 - -
16/10:00pm -17.6 -28.4 -26.1 47 - SSE 37 48 20 26 978.7 978.9 -
16/09:30pm -17.8 -31.8 -27.5 42 - SSE 54 61 29 33 978.3 - -
16/09:00pm -17.5 -30.8 -27.0 43 - SSE 50 65 27 35 978.5 - -
16/08:30pm -17.4 -32.0 -26.4 45 - SSE 57 67 31 36 978.3 - -
16/08:00pm -17.4 -31.8 -26.2 46 - SSE 56 69 30 37 978.1 - -
16/07:30pm -16.9 -30.5 -26.5 43 - SSE 52 63 28 34 978.0 - -
16/07:00pm -16.5 -28.4 -26.4 42 - SSE 43 57 23 31 977.9 - -
16/06:30pm -16.4 -27.6 -25.8 44 - SE 39 50 21 27 977.8 - -
16/06:00pm -16.3 -30.0 -26.7 40 - SE 52 61 28 33 977.5 - -
16/05:30pm -16.6 -31.0 -26.2 43 - SE 56 67 30 36 977.1 - -
16/05:00pm -17.2 -31.2 -25.5 48 - SE 54 63 29 34 977.3 - -
16/04:30pm -17.9 -32.3 -27.4 43 - SE 56 65 30 35 977.2 - -
16/04:13pm -17.9 -29.1 -26.7 46 - SE 39 57 21 31 977.0 - -
16/04:00pm -18.2 -29.0 -27.7 43 - SSE 37 46 20 25 977.1 977.2 -
16/03:30pm -18.6 -28.1 -27.3 46 - SE 30 41 16 22 977.3 - -
16/03:09pm -18.8 -29.3 -28.2 43 - SE 35 54 19 29 977.2 - -
16/03:00pm -18.6 -28.7 -28.0 43 - SSE 33 41 18 22 977.2 - -
16/02:30pm -19.7 -29.2 -28.1 47 - SE 30 39 16 21 977.2 - -
16/02:00pm -19.2 -31.2 -28.8 42 - SE 43 52 23 28 976.9 - -
16/01:30pm -19.2 -30.4 -29.1 41 - SE 39 48 21 26 977.1 - -
16/01:00pm -19.8 -29.7 -28.9 44 - SE 32 39 17 21 977.2 977.3 -
16/12:30pm -20.7 -34.4 -28.8 48 - SE 52 61 28 33 976.8 - -
16/12:23pm -21.2 -33.2 -29.7 46 - SE 43 61 23 33 976.7 - -
16/12:00pm -20.5 -32.1 -29.1 46 - SE 41 50 22 27 976.9 - -
16/11:30am -21.3 -33.9 -29.3 49 - SE 46 56 25 30 976.7 - -
16/11:13am -21.5 -31.4 -29.8 47 - SE 32 44 17 24 976.9 - -
16/11:00am -21.7 -28.8 -29.7 48 - WSW 17 24 9 13 977.2 - -
16/10:30am -21.5 -28.2 -29.3 49 - S 15 20 8 11 977.3 - -
16/10:13am -21.3 -30.4 -29.1 49 - SSE 28 33 15 18 977.1 - -
16/10:00am -21.6 -33.6 -29.4 49 - SE 43 46 23 25 977.0 977.1 -
16/09:30am -22.2 -30.6 -30.2 48 - SE 24 30 13 16 977.2 - -
16/09:05am -21.8 -30.9 -29.4 50 - SE 28 39 15 21 977.0 - -
16/09:00am -21.8 -27.7 -29.4 50 - E 11 20 6 11 977.2 - -
16/08:30am -21.7 -28.0 -29.3 50 - NNE 13 24 7 13 977.3 - -
16/08:00am -21.7 -27.2 -29.1 51 - NNE 9 17 5 9 977.0 - -
16/07:30am -21.1 -31.0 -28.7 50 - SE 32 43 17 23 976.4 - -
16/07:20am -21.4 -31.9 -28.8 51 - SE 35 39 19 21 976.5 - -
16/07:00am -21.2 -27.1 -29.7 46 - SSE 11 19 6 10 976.6 976.7 -
16/06:30am -21.4 -27.7 -29.7 47 - SSW 13 20 7 11 976.8 - -
16/06:00am -20.6 -26.1 -29.1 47 - NE 9 19 5 10 976.9 - -
16/05:30am -21.1 -28.2 -30.6 42 - N 17 22 9 12 977.0 - -
16/05:00am -20.1 -28.1 -30.2 40 - S 22 32 12 17 976.9 - -
16/04:55am -20.4 -28.4 -31.0 38 - SSE 22 28 12 15 976.8 - -
16/04:30am -21.3 -32.9 -30.0 45 - SE 41 48 22 26 976.5 - -
16/04:00am -21.1 -31.9 -29.2 48 - SE 37 48 20 26 976.3 976.4 -
16/03:30am -20.7 -32.9 -29.0 47 - SE 44 52 24 28 976.2 - -
16/03:00am -20.5 -32.1 -28.8 47 - ESE 41 48 22 26 976.3 - -
16/02:30am -20.2 -29.3 -27.5 52 - ESE 28 37 15 20 976.5 - -
16/02:00am -20.2 -29.7 -26.9 55 - ESE 30 37 16 20 976.6 - -
16/01:30am -20.0 -30.0 -26.7 55 - ESE 33 41 18 22 976.4 - -
16/01:00am -20.0 -28.7 -26.5 56 - ESE 26 35 14 19 976.5 976.6 -
16/12:30am -20.0 -27.5 -25.7 60 - E 20 28 11 15 977.0 - -
16/12:00am -19.4 -26.0 -25.7 57 - NNE 15 28 8 15 977.3 - -
 
Date/Time
EST
Temp
°C
App
Temp
°C
Dew
Point
°C
Rel
Hum
%
Delta-T
°C
Wind Press
QNH
hPa
Press
MSL
hPa
Rain since
9am
mm
Dir  Spd
km/h
Gust
km/h
Spd
kts
Gust
kts
15/11:30pm -18.9 -24.0 -26.5 51 - NNW 7 15 4 8 977.3 - -
15/11:00pm -20.7 -27.0 -27.3 55 - WSW 13 20 7 11 977.4 - -
15/10:30pm -20.5 -26.4 -26.8 57 - WSW 11 13 6 7 977.3 - -
15/10:00pm -20.3 -26.2 -27.6 52 - WSW 11 17 6 9 977.3 - -
15/09:30pm -19.8 -24.9 -27.1 52 - NNE 7 9 4 5 977.4 - -
15/09:00pm -20.2 -24.4 -27.5 52 - NNE 2 7 1 4 977.5 - -
15/08:30pm -20.2 -25.1 -27.7 51 - NNE 6 7 3 4 977.9 - -
15/08:00pm -20.3 -25.4 -27.8 51 - NE 7 11 4 6 978.2 - -
15/07:30pm -20.2 -26.5 -27.7 51 - NE 13 15 7 8 978.7 - -
15/07:00pm -20.0 -25.5 -28.8 45 - NE 9 13 5 7 978.9 979.1 -
15/06:30pm -20.0 -25.5 -29.1 44 - NNE 9 13 5 7 979.2 - -
15/06:00pm -20.2 -26.5 -29.2 45 - NNE 13 17 7 9 979.5 - -
15/05:30pm -20.1 -26.4 -29.6 42 - NNE 13 17 7 9 979.8 - -
15/05:00pm -19.9 -26.6 -29.5 42 - NE 15 20 8 11 980.1 - -
15/04:30pm -19.8 -26.9 -29.6 41 - ENE 17 20 9 11 980.3 - -
15/04:00pm -19.9 -27.9 -31.4 35 - E 22 32 12 17 980.4 - -
15/03:30pm -20.5 -29.7 -31.3 37 - E 28 37 15 20 980.4 - -
15/03:21pm -20.4 -29.6 -31.5 36 - ESE 28 41 15 22 980.6 - -
15/03:00pm -22.9 -27.9 -30.6 49 - ENE 6 11 3 6 981.1 - -
15/02:30pm -23.9 -29.8 -30.5 54 - ESE 11 13 6 7 981.3 - -
15/02:00pm -24.3 -28.1 -30.9 54 - CALM 0 0 0 0 981.3 - -
15/01:30pm -24.4 -29.0 -31.0 54 - WSW 4 7 2 4 981.2 - -
15/01:00pm -24.0 -29.6 -31.2 51 - SSW 9 15 5 8 981.1 981.3 -
15/12:30pm -24.0 -31.5 -31.0 52 - WNW 19 24 10 13 980.8 - -
15/12:00pm -22.2 -29.3 -31.1 44 - W 17 20 9 11 980.6 - -
15/11:30am -22.1 -29.7 -30.8 45 - SW 20 24 11 13 980.1 - -
15/11:00am -20.7 -31.2 -31.2 38 - SSE 35 50 19 27 980.0 - -
15/10:30am -21.1 -32.4 -31.3 39 - SE 39 52 21 28 979.2 - -
15/10:00am -21.8 -33.1 -32.0 39 - SE 39 50 21 27 979.2 979.4 -
15/09:30am -20.6 -31.9 -31.4 37 - SE 39 46 21 25 979.5 - -
15/09:00am -22.7 -33.6 -31.5 45 - SE 37 44 20 24 979.8 - -
15/08:30am -21.0 -32.7 -32.1 36 - SE 41 52 22 28 979.8 - -
15/08:00am -22.4 -33.7 -32.3 40 - SE 39 48 21 26 979.6 - -
15/07:30am -22.5 -34.1 -31.4 44 - SE 41 46 22 25 979.3 - -
15/07:00am -22.5 -34.5 -31.8 43 - SE 43 50 23 27 979.2 979.4 -
15/06:42am -22.1 -32.0 -31.5 42 - SE 32 43 17 23 979.1 - -
15/06:30am -24.2 -29.8 -31.0 53 - SSW 9 17 5 9 979.8 - -
15/06:00am -22.3 -29.0 -31.9 41 - W 15 24 8 13 979.5 - -
15/05:37am -20.8 -30.7 -32.5 34 - SSE 32 39 17 21 978.6 - -
15/05:30am -19.5 -25.4 -31.9 32 - WSW 11 20 6 11 978.5 - -
15/05:00am -23.2 -28.8 -31.8 45 - WSW 9 17 5 9 978.8 - -
15/04:30am -22.5 -31.3 -31.4 44 - S 26 30 14 16 978.6 - -
15/04:00am -21.7 -31.6 -31.6 40 - SSE 32 35 17 19 978.4 978.6 -
15/03:30am -22.3 -28.2 -31.4 43 - SW 11 20 6 11 978.5 - -
15/03:00am -24.3 -29.5 -30.9 54 - SW 7 13 4 7 978.5 - -
15/02:30am -24.9 -30.8 -30.9 57 - NW 11 15 6 8 978.2 - -
15/02:00am -23.8 -28.8 -30.8 52 - S 6 9 3 5 978.0 - -
15/01:30am -23.5 -29.1 -31.4 48 - SW 9 15 5 8 977.9 - -
15/01:00am -24.7 -30.3 -30.7 57 - W 9 15 5 8 978.0 978.1 -
15/12:30am -22.6 -28.2 -31.9 42 - WNW 9 13 5 7 977.9 - -
15/12:00am -22.8 -27.8 -31.4 45 - SSW 6 9 3 5 977.5 - -
 
Date/Time
EST
Temp
°C
App
Temp
°C
Dew
Point
°C
Rel
Hum
%
Delta-T
°C
Wind Press
QNH
hPa
Press
MSL
hPa
Rain since
9am
mm
Dir  Spd
km/h
Gust
km/h
Spd
kts
Gust
kts
14/11:30pm -21.4 -26.6 -32.1 38 - SSW 7 11 4 6 977.5 - -
14/11:00pm -22.0 -27.5 -29.8 49 - SW 9 11 5 6 977.3 - -
14/10:30pm -21.2 -26.8 -30.7 42 - WSW 9 11 5 6 976.7 - -
14/10:00pm -20.6 -26.5 -30.6 40 - S 11 15 6 8 976.5 976.6 -
14/09:30pm -20.6 -25.8 -30.6 40 - SW 7 11 4 6 976.4 - -
14/09:00pm -20.4 -26.3 -30.2 41 - WSW 11 13 6 7 975.9 - -
14/08:30pm -20.3 -25.9 -30.6 39 - SW 9 13 5 7 975.8 - -
14/08:00pm -20.9 -27.2 -30.9 40 - SW 13 15 7 8 975.7 - -
14/07:30pm -21.0 -26.2 -32.7 34 - SSE 7 11 4 6 975.7 - -
14/07:00pm -21.4 -27.0 -33.3 33 - WSW 9 11 5 6 975.3 975.4 -
14/06:30pm -21.9 -28.6 -32.1 39 - W 15 20 8 11 974.6 - -
14/06:00pm -22.4 -29.5 -32.3 40 - SW 17 24 9 13 974.3 - -
14/05:30pm -21.1 -27.4 -31.6 38 - WNW 13 19 7 10 974.3 - -

Other formats

Comma delimited format used in spreadsheet applications
http://www.bom.gov.au/fwo/IDT60803/IDT60803.89564.axf

JavaScript Object Notation format (JSON) in row-major order
http://www.bom.gov.au/fwo/IDT60803/IDT60803.89564.json

Data quality

Most of these data are generated automatically and are frequently updated. Quality checks on data are not normally performed. It is possible for incorrect values to appear. Refer to information at About Latest Weather Observations and please check the disclaimer before using these data.